Time;durP1;ratioP1;P1;durP2;ratioP2;P2;SDS_P1;SDS_P2;PMS_P1;PMS_P2;Temp;Humidity;BMP_temperature;BMP_pressure;BME280_temperature;BME280_humidity;BME280_pressure;Samples;Min_cycle;Max_cycle;Signal;HPM_P1;HPM_P2
2022/12/05 00:01:52;;;;;;;62.03;23.80;;;8.80;75.50;;;;;;7374262;19;20014;-80
2022/12/05 00:04:20;;;;;;;58.08;23.00;;;8.60;75.50;;;;;;7378970;19;20113;-81
2022/12/05 00:06:49;;;;;;;64.43;24.20;;;8.60;75.70;;;;;;7377495;19;20018;-81
2022/12/05 00:09:18;;;;;;;60.13;23.20;;;8.50;75.80;;;;;;7396624;19;20383;-81
2022/12/05 00:11:47;;;;;;;60.80;23.75;;;8.60;76.10;;;;;;7372879;19;20026;-81
2022/12/05 00:14:16;;;;;;;59.17;22.25;;;8.60;76.10;;;;;;7372841;19;20029;-81
2022/12/05 00:16:46;;;;;;;57.80;22.80;;;8.60;76.20;;;;;;7372905;19;20022;-81
2022/12/05 00:19:17;;;;;;;71.07;23.20;;;8.60;76.10;;;;;;7375736;19;20018;-81
2022/12/05 00:21:46;;;;;;;58.03;23.65;;;8.70;76.20;;;;;;7373589;19;20126;-81
2022/12/05 00:24:18;;;;;;;57.30;22.63;;;8.70;76.40;;;;;;7394315;19;20022;-81
2022/12/05 00:26:47;;;;;;;61.65;22.48;;;8.80;76.10;;;;;;7370631;19;20010;-81
2022/12/05 00:29:16;;;;;;;57.30;21.92;;;8.80;76.20;;;;;;7372775;19;20669;-81
2022/12/05 00:31:44;;;;;;;53.33;21.58;;;8.90;76.10;;;;;;7371531;19;20466;-81
2022/12/05 00:34:13;;;;;;;55.55;22.13;;;8.80;75.20;;;;;;7374263;19;20073;-81
2022/12/05 00:36:44;;;;;;;57.80;22.17;;;8.80;75.10;;;;;;7373620;19;20063;-80
2022/12/05 00:39:14;;;;;;;;;;;8.80;75.50;;;;;;7397798;19;20022;-81
2022/12/05 00:41:43;;;;;;;59.95;21.73;;;8.80;75.40;;;;;;7372773;19;19923;-81
2022/12/05 00:44:13;;;;;;;51.13;21.35;;;8.60;75.40;;;;;;7375947;19;20114;-81
2022/12/05 00:46:42;;;;;;;63.85;23.58;;;8.60;75.50;;;;;;7372560;19;20018;-80
2022/12/05 00:49:13;;;;;;;57.03;23.27;;;8.70;75.90;;;;;;7371370;19;20021;-80
2022/12/05 00:51:45;;;;;;;59.20;23.33;;;8.70;76.10;;;;;;7373725;19;20078;-80
2022/12/05 00:54:16;;;;;;;55.05;22.42;;;8.70;75.90;;;;;;7395779;19;20090;-81
2022/12/05 00:56:45;;;;;;;63.58;22.70;;;8.80;75.80;;;;;;7377449;19;20015;-81
2022/12/05 00:59:18;;;;;;;55.17;22.40;;;8.80;75.40;;;;;;7377373;19;20035;-81
2022/12/05 01:01:48;;;;;;;55.50;21.40;;;8.70;74.70;;;;;;7370971;19;20055;-81
2022/12/05 01:04:19;;;;;;;56.37;22.63;;;8.70;74.70;;;;;;7372318;19;20727;-80
2022/12/05 01:06:50;;;;;;;57.13;23.13;;;8.50;74.70;;;;;;7372880;19;20089;-82
2022/12/05 01:09:21;;;;;;;58.90;22.83;;;8.60;75.30;;;;;;7392975;19;20022;-81
2022/12/05 01:11:51;;;;;;;63.97;23.75;;;8.50;75.10;;;;;;7373999;19;20093;-81
2022/12/05 01:14:22;;;;;;;59.67;23.85;;;8.50;75.50;;;;;;7385735;19;20010;-81
2022/12/05 01:16:52;;;;;;;67.78;25.02;;;8.40;75.10;;;;;;7379838;19;20014;-81
2022/12/05 01:19:23;;;;;;;65.63;24.88;;;8.30;75.30;;;;;;7372454;19;20064;-80
2022/12/05 01:21:55;;;;;;;67.55;24.80;;;8.30;75.80;;;;;;7372905;19;20479;-81
2022/12/05 01:24:25;;;;;;;54.40;23.23;;;8.10;75.60;;;;;;7392784;19;20032;-80
2022/12/05 01:26:54;;;;;;;61.40;24.23;;;8.20;76.10;;;;;;7370539;19;20110;-81
2022/12/05 01:29:25;;;;;;;57.28;23.85;;;8.20;76.20;;;;;;7373008;19;20021;-81
2022/12/05 01:31:54;;;;;;;63.60;24.10;;;8.30;76.40;;;;;;7370477;19;20014;-81
2022/12/05 01:34:23;;;;;;;65.72;24.85;;;8.40;76.30;;;;;;7321393;19;20044;-80
2022/12/05 01:36:55;;;;;;;68.28;24.58;;;8.50;76.10;;;;;;7365994;19;20022;-80
2022/12/05 01:39:24;;;;;;;;;;;8.60;76.20;;;;;;7398287;19;20010;-80
2022/12/05 01:41:53;;;;;;;58.05;22.63;;;8.60;75.50;;;;;;7378526;19;20257;-80
2022/12/05 01:44:52;;;;;;;66.90;24.00;;;8.60;75.50;;;;;;7379219;19;20073;-80
2022/12/05 01:47:21;;;;;;;60.65;24.05;;;8.60;75.50;;;;;;7378269;19;20022;-81
2022/12/05 01:49:50;;;;;;;59.30;23.38;;;8.70;75.60;;;;;;7379900;19;20027;-80
2022/12/05 01:52:26;;;;;;;66.47;24.95;;;8.70;75.90;;;;;;7380517;19;20127;-80
2022/12/05 01:55:00;;;;;;;62.40;22.98;;;8.70;75.60;;;;;;7376035;19;20036;-81
2022/12/05 01:57:29;;;;;;;61.35;23.42;;;8.80;75.70;;;;;;7394579;19;20022;-80
2022/12/05 02:00:03;;;;;;;56.33;24.13;;;8.80;75.70;;;;;;7374037;19;20073;-80
2022/12/05 02:02:33;;;;;;;58.55;24.42;;;8.80;75.40;;;;;;7374601;19;20101;-80
2022/12/05 02:05:06;;;;;;;62.13;25.08;;;8.80;75.50;;;;;;7375764;19;20068;-81
2022/12/05 02:07:42;;;;;;;67.47;25.15;;;8.80;75.70;;;;;;7375891;19;20031;-80
2022/12/05 02:10:12;;;;;;;60.75;24.83;;;8.70;75.80;;;;;;7374793;19;20035;-80
2022/12/05 02:12:41;;;;;;;55.78;24.63;;;8.80;76.10;;;;;;7375881;19;20078;-79
2022/12/05 02:15:28;;;;;;;67.72;25.73;;;8.80;76.10;;;;;;7395747;19;20074;-80
2022/12/05 02:18:06;;;;;;;64.25;24.90;;;8.80;76.40;;;;;;7374801;19;20049;-81
2022/12/05 02:20:46;;;;;;;61.28;24.40;;;8.70;76.30;;;;;;7372082;19;20031;-80
2022/12/05 02:23:31;;;;;;;65.32;24.05;;;8.70;76.00;;;;;;7371690;19;20011;-80
2022/12/05 02:26:28;;;;;;;61.85;24.10;;;8.70;75.90;;;;;;7368782;19;20023;-80
2022/12/05 02:29:19;;;;;;;63.92;24.55;;;8.60;75.60;;;;;;7369426;19;20015;-81
2022/12/05 02:31:52;;;;;;;;;;;8.60;75.70;;;;;;7369587;19;20070;-81
2022/12/05 02:34:29;;;;;;;64.78;23.27;;;8.60;75.90;;;;;;7371646;19;20303;-82
2022/12/05 02:37:04;;;;;;;60.17;22.75;;;8.40;75.50;;;;;;7367516;19;20949;-82
2022/12/05 02:39:42;;;;;;;61.00;25.20;;;8.40;75.80;;;;;;7389584;19;20086;-83
2022/12/05 02:42:17;;;;;;;60.85;24.48;;;8.30;75.50;;;;;;7369414;19;20089;-82
2022/12/05 02:44:50;;;;;;;57.13;24.02;;;8.30;75.60;;;;;;7368108;19;20446;-82
2022/12/05 02:47:26;;;;;;;61.47;23.08;;;8.30;75.80;;;;;;7368756;19;20540;-82
2022/12/05 02:49:56;;;;;;;66.85;23.92;;;8.20;76.00;;;;;;7371613;19;20074;-82
2022/12/05 02:52:26;;;;;;;58.05;23.60;;;8.20;76.10;;;;;;7378516;19;20039;-81
2022/12/05 02:54:56;;;;;;;59.17;23.88;;;8.30;76.30;;;;;;7377925;19;20021;-87
2022/12/05 02:57:25;;;;;;;59.00;24.08;;;8.30;76.40;;;;;;7405159;19;20023;-88
2022/12/05 02:59:54;;;;;;;60.10;22.95;;;8.30;76.30;;;;;;7379596;19;20880;-87
2022/12/05 03:02:30;;;;;;;65.25;24.27;;;8.30;76.40;;;;;;7376963;19;20035;-87
2022/12/05 03:05:03;;;;;;;58.25;23.02;;;8.30;76.50;;;;;;7381000;19;20040;-88
2022/12/05 03:07:32;;;;;;;57.00;23.00;;;8.30;76.30;;;;;;7386005;19;20439;-88
2022/12/05 03:10:06;;;;;;;69.72;24.77;;;8.30;76.40;;;;;;7388156;19;20014;-87
2022/12/05 03:12:41;;;;;;;54.97;23.05;;;8.40;77.40;;;;;;7408903;19;20030;-88
2022/12/05 03:15:14;;;;;;;56.25;23.65;;;8.40;76.20;;;;;;7392151;19;20593;-89
2022/12/05 03:17:53;;;;;;;58.75;22.73;;;8.10;76.00;;;;;;7401963;19;20018;-89
2022/12/05 03:20:29;;;;;;;61.60;23.55;;;8.10;76.50;;;;;;7395027;19;20023;-89
2022/12/05 03:23:03;;;;;;;56.65;23.58;;;8.10;76.50;;;;;;7385748;19;20338;-88
2022/12/05 03:25:40;;;;;;;59.63;23.13;;;8.10;76.50;;;;;;7380055;19;20015;-89
2022/12/05 03:28:18;;;;;;;57.22;24.13;;;8.00;76.40;;;;;;7380380;19;20022;-89
2022/12/05 03:30:50;;;;;;;58.78;23.35;;;8.10;76.60;;;;;;7380201;19;20125;-89
2022/12/05 03:33:25;;;;;;;54.33;23.60;;;8.00;76.50;;;;;;7402593;19;20044;-89
2022/12/05 03:36:03;;;;;;;59.10;25.60;;;8.00;76.70;;;;;;7382790;19;20063;-89
2022/12/05 03:38:36;;;;;;;55.58;23.55;;;8.00;76.60;;;;;;7380142;19;20015;-89
2022/12/05 03:41:11;;;;;;;58.00;24.45;;;8.00;76.50;;;;;;7380275;19;20026;-89
2022/12/05 03:43:45;;;;;;;62.63;24.95;;;7.90;76.40;;;;;;7379908;19;20017;-88
2022/12/05 03:46:19;;;;;;;62.70;24.77;;;7.80;76.30;;;;;;7385226;19;20054;-88
2022/12/05 03:48:56;;;;;;;60.80;24.30;;;7.80;76.80;;;;;;7380998;19;20039;-88
2022/12/05 03:51:28;;;;;;;54.95;23.00;;;7.80;76.70;;;;;;7406296;19;20062;-89
2022/12/05 03:54:02;;;;;;;57.65;24.55;;;7.80;76.70;;;;;;7385244;19;20026;-89
2022/12/05 03:56:38;;;;;;;65.70;24.52;;;7.80;76.80;;;;;;7380930;19;20119;-89
2022/12/05 03:59:13;;;;;;;56.05;25.30;;;7.90;76.70;;;;;;7377681;19;20035;-89
2022/12/05 04:01:46;;;;;;;67.40;26.52;;;7.90;76.30;;;;;;7375774;19;20014;-88
2022/12/05 04:04:23;;;;;;;62.65;26.15;;;7.90;76.20;;;;;;7376921;19;20440;-89
2022/12/05 04:06:56;;;;;;;58.20;25.95;;;7.90;77.30;;;;;;7382921;19;20046;-88
2022/12/05 04:09:29;;;;;;;58.40;26.45;;;7.90;76.30;;;;;;7418625;19;20010;-89
2022/12/05 04:12:03;;;;;;;63.47;25.98;;;7.90;76.30;;;;;;7396333;19;20568;-88
2022/12/05 04:14:36;;;;;;;62.25;26.35;;;8.00;76.50;;;;;;7390449;19;20023;-88
2022/12/05 04:17:05;;;;;;;61.78;25.38;;;8.00;76.20;;;;;;7384872;19;20062;-87
2022/12/05 04:22:24;;;;;;;71.13;27.08;;;8.00;76.10;;;;;;7386031;19;20110;-88
2022/12/05 04:27:41;;;;;;;63.03;26.92;;;8.00;76.10;;;;;;7408570;19;20317;-88
2022/12/05 04:30:13;;;;;;;67.55;27.10;;;8.00;76.20;;;;;;7385575;19;20019;-88
2022/12/05 04:32:48;;;;;;;59.85;26.70;;;8.00;76.10;;;;;;7381771;19;20087;-87
2022/12/05 04:35:24;;;;;;;58.45;26.02;;;8.10;76.20;;;;;;7390561;19;20098;-87
2022/12/05 04:37:57;;;;;;;63.10;27.13;;;8.10;76.00;;;;;;7381242;19;20097;-88
2022/12/05 04:40:31;;;;;;;66.35;26.23;;;8.10;75.90;;;;;;7382581;19;20011;-88
2022/12/05 04:43:03;;;;;;;60.13;26.63;;;8.10;75.60;;;;;;7395664;19;20023;-87
2022/12/05 04:45:34;;;;;;;59.97;25.63;;;8.20;75.80;;;;;;7406280;19;20014;-87
2022/12/05 04:48:12;;;;;;;65.15;25.48;;;8.20;75.40;;;;;;7383154;19;20007;-87
2022/12/05 04:50:46;;;;;;;64.80;25.20;;;8.10;75.20;;;;;;7383605;19;20360;-87
2022/12/05 04:53:17;;;;;;;62.58;25.60;;;8.10;75.20;;;;;;7399367;19;20009;-87
2022/12/05 04:55:50;;;;;;;46.72;20.58;;;8.10;74.80;;;;;;7406958;19;20077;-87
2022/12/05 04:58:22;;;;;;;57.05;24.38;;;8.00;75.00;;;;;;7398325;19;20023;-88
2022/12/05 05:00:59;;;;;;;61.70;25.63;;;8.00;75.50;;;;;;7388267;19;20017;-88
2022/12/05 05:03:33;;;;;;;62.15;25.00;;;7.90;75.00;;;;;;7408143;19;20018;-88
2022/12/05 05:06:05;;;;;;;61.55;24.02;;;7.90;75.00;;;;;;7384919;19;20027;-88
2022/12/05 05:08:34;;;;;;;62.05;24.35;;;7.80;75.10;;;;;;7382811;19;20422;-88
2022/12/05 05:11:11;;;;;;;60.33;24.65;;;7.70;75.40;;;;;;7378351;19;20011;-88
2022/12/05 05:13:40;;;;;;;60.10;25.40;;;7.60;75.70;;;;;;7387478;19;20059;-88
2022/12/05 05:16:09;;;;;;;74.28;27.50;;;7.60;75.90;;;;;;7382760;19;20056;-87
2022/12/05 05:18:38;;;;;;;66.25;27.20;;;7.60;76.10;;;;;;7382393;19;20031;-85
2022/12/05 05:21:17;;;;;;;76.00;28.08;;;7.70;76.00;;;;;;7399709;19;20018;-87
2022/12/05 05:23:46;;;;;;;64.60;26.67;;;7.60;75.80;;;;;;7379246;19;20010;-87
2022/12/05 05:26:15;;;;;;;70.15;28.20;;;7.60;75.80;;;;;;7378001;19;20050;-88
2022/12/05 05:28:44;;;;;;;75.90;29.35;;;7.60;76.10;;;;;;7379855;19;20015;-88
2022/12/05 05:31:13;;;;;;;71.22;28.10;;;7.70;76.00;;;;;;7380465;19;20035;-88
2022/12/05 05:33:41;;;;;;;79.15;29.85;;;7.70;76.10;;;;;;7378127;19;20028;-86
2022/12/05 05:36:15;;;;;;;74.82;29.63;;;7.70;76.10;;;;;;7402740;19;20029;-88
2022/12/05 05:38:45;;;;;;;101.45;29.70;;;7.80;76.40;;;;;;7384636;19;20430;-89
2022/12/05 05:41:16;;;;;;;75.30;29.10;;;7.80;76.50;;;;;;7390183;19;20015;-89
2022/12/05 05:43:45;;;;;;;74.03;28.88;;;7.80;76.60;;;;;;7386523;19;20010;-89
2022/12/05 05:46:15;;;;;;;78.97;29.95;;;7.80;76.30;;;;;;7383831;19;20014;-89
2022/12/05 05:48:44;;;;;;;74.28;30.20;;;7.90;76.30;;;;;;7386951;19;20021;-88
2022/12/05 05:51:17;;;;;;;73.40;28.50;;;7.90;76.00;;;;;;7410207;19;20015;-88
2022/12/05 05:53:46;;;;;;;69.68;29.42;;;7.80;75.80;;;;;;7384872;19;20028;-87
2022/12/05 05:56:16;;;;;;;74.13;29.05;;;7.80;75.70;;;;;;7383077;19;20018;-88
2022/12/05 05:58:45;;;;;;;68.88;28.63;;;7.80;75.70;;;;;;7380325;19;20014;-87
2022/12/05 06:01:16;;;;;;;79.20;29.65;;;7.80;75.50;;;;;;7382158;19;20010;-88
2022/12/05 06:03:45;;;;;;;81.43;29.57;;;7.70;75.40;;;;;;7382153;19;20035;-88
2022/12/05 06:06:17;;;;;;;88.97;32.00;;;7.70;75.80;;;;;;7404869;19;20267;-88
2022/12/05 06:08:46;;;;;;;80.78;29.77;;;7.70;75.90;;;;;;7383393;19;20022;-89
2022/12/05 06:11:17;;;;;;;71.57;27.92;;;7.70;76.00;;;;;;7384553;19;20034;-90
2022/12/05 06:13:46;;;;;;;75.70;29.85;;;7.70;75.70;;;;;;7392231;19;20031;-89
2022/12/05 06:16:17;;;;;;;65.93;27.00;;;7.70;75.40;;;;;;7395621;19;20038;-88
2022/12/05 06:18:46;;;;;;;77.63;27.33;;;7.70;75.70;;;;;;7383738;19;20015;-88
2022/12/05 06:21:18;;;;;;;76.30;27.75;;;7.80;75.90;;;;;;7399707;19;20028;-88
2022/12/05 06:23:47;;;;;;;63.47;26.15;;;7.80;76.00;;;;;;7385020;19;20010;-90
2022/12/05 06:26:17;;;;;;;70.78;25.85;;;7.80;75.70;;;;;;7411996;19;20022;-89
2022/12/05 06:28:46;;;;;;;65.68;25.90;;;7.80;76.00;;;;;;7405922;19;20007;-89
2022/12/05 06:31:17;;;;;;;73.97;26.73;;;7.80;76.00;;;;;;7397945;19;20030;-88
2022/12/05 06:33:46;;;;;;;76.83;27.73;;;7.80;75.80;;;;;;7392059;19;20035;-88
2022/12/05 06:36:20;;;;;;;73.93;26.75;;;7.90;75.70;;;;;;7418876;19;20271;-88
2022/12/05 06:38:49;;;;;;;75.10;27.98;;;7.90;75.80;;;;;;7396963;19;20014;-88
2022/12/05 06:41:23;;;;;;;75.55;27.30;;;7.90;75.50;;;;;;7393248;19;20065;-88
2022/12/05 06:43:55;;;;;;;71.30;27.83;;;7.90;75.30;;;;;;7380924;19;20098;-87
2022/12/05 06:46:24;;;;;;;63.47;24.85;;;7.90;75.50;;;;;;7387891;19;20010;-88
2022/12/05 06:48:54;;;;;;;69.22;27.23;;;7.70;74.80;;;;;;7386295;19;20094;-88
2022/12/05 06:51:26;;;;;;;75.72;26.92;;;7.70;75.30;;;;;;7409753;19;20015;-88
2022/12/05 06:53:55;;;;;;;67.15;25.08;;;7.60;75.60;;;;;;7393583;19;20015;-88
2022/12/05 06:56:24;;;;;;;75.10;24.52;;;7.40;75.90;;;;;;7396269;19;20007;-90
2022/12/05 06:58:53;;;;;;;73.68;26.73;;;7.40;76.00;;;;;;7396346;19;20006;-90
2022/12/05 07:04:05;;;;;;;68.55;24.98;;;7.40;75.60;;;;;;7401282;19;20047;-90
2022/12/05 07:06:37;;;;;;;70.25;27.30;;;7.50;76.00;;;;;;7416836;19;20014;-90
2022/12/05 07:09:06;;;;;;;72.75;26.98;;;7.50;76.00;;;;;;7381861;19;20677;-88
2022/12/05 07:11:36;;;;;;;67.43;24.85;;;7.60;76.10;;;;;;7385932;19;20014;-89
2022/12/05 07:14:06;;;;;;;68.57;25.15;;;7.60;76.00;;;;;;7406799;19;20010;-88
2022/12/05 07:16:34;;;;;;;63.25;25.05;;;7.60;75.50;;;;;;7406565;19;20021;-89
2022/12/05 07:19:03;;;;;;;63.22;25.30;;;7.60;75.70;;;;;;7394792;19;20031;-86
2022/12/05 07:21:32;;;;;;;75.18;27.48;;;7.60;75.60;;;;;;7425569;19;20017;-87
2022/12/05 07:24:03;;;;;;;70.93;26.48;;;7.60;75.80;;;;;;7410117;19;20036;-89
2022/12/05 07:26:32;;;;;;;68.28;24.60;;;7.70;75.80;;;;;;7407681;19;20018;-89
2022/12/05 07:29:01;;;;;;;67.88;26.75;;;7.70;75.70;;;;;;7395438;19;20331;-89
2022/12/05 07:31:32;;;;;;;74.18;26.58;;;7.70;75.60;;;;;;7406096;19;20011;-90
2022/12/05 07:34:01;;;;;;;67.60;25.48;;;7.70;75.80;;;;;;7408437;19;20003;-88
2022/12/05 07:36:31;;;;;;;65.65;25.30;;;7.60;75.50;;;;;;7428295;19;20018;-85
2022/12/05 07:39:15;;;;;;;69.55;25.38;;;7.70;75.80;;;;;;7403682;19;20014;-90
2022/12/05 07:41:43;;;;;;;61.72;24.75;;;7.70;75.70;;;;;;7400981;19;20021;-89
2022/12/05 07:44:13;;;;;;;72.22;24.60;;;7.70;75.40;;;;;;7401726;19;20474;-89
2022/12/05 07:46:42;;;;;;;64.95;25.55;;;7.70;75.50;;;;;;7391547;19;20018;-87
2022/12/05 07:49:11;;;;;;;65.45;25.02;;;7.70;75.40;;;;;;7400063;19;20015;-87
2022/12/05 07:51:40;;;;;;;60.03;23.25;;;7.70;75.70;;;;;;7397635;19;20017;-88
2022/12/05 07:54:11;;;;;;;57.92;23.42;;;7.70;75.40;;;;;;7403469;19;20018;-85
2022/12/05 07:56:40;;;;;;;;;;;7.70;75.40;;;;;;7389102;19;20031;-88
2022/12/05 07:59:08;;;;;;;61.13;23.30;;;7.90;75.70;;;;;;7376008;19;20019;-79
2022/12/05 08:01:38;;;;;;;54.63;23.60;;;7.80;75.20;;;;;;7375558;19;20058;-79
2022/12/05 08:04:07;;;;;;;64.60;24.00;;;7.90;75.40;;;;;;7375710;19;20018;-79
2022/12/05 08:06:36;;;;;;;65.18;25.45;;;7.90;75.20;;;;;;7397759;19;20057;-79
2022/12/05 08:09:05;;;;;;;64.50;25.27;;;7.90;75.50;;;;;;7371064;19;20031;-78
2022/12/05 08:11:45;;;;;;;64.07;24.38;;;8.00;75.90;;;;;;7372669;19;20077;-80
2022/12/05 08:14:14;;;;;;;769.17;46.03;;;8.00;76.10;;;;;;7375792;19;20070;-80
2022/12/05 08:16:42;;;;;;;204.90;32.20;;;8.10;75.90;;;;;;7373247;19;20010;-79
2022/12/05 08:19:15;;;;;;;63.55;25.60;;;8.10;76.10;;;;;;7374965;19;20090;-78
2022/12/05 08:21:44;;;;;;;1135.85;58.78;;;8.10;75.20;;;;;;7377404;19;20065;-79
2022/12/05 08:24:13;;;;;;;197.75;29.67;;;8.00;76.70;;;;;;7427832;19;20408;-78
2022/12/05 08:26:45;;;;;;;64.03;27.20;;;7.90;76.30;;;;;;7388471;19;20037;-79
2022/12/05 08:29:16;;;;;;;62.95;26.20;;;7.90;75.70;;;;;;7380737;19;20014;-79
2022/12/05 08:31:47;;;;;;;492.10;38.60;;;7.90;75.80;;;;;;7376165;19;20058;-80
2022/12/05 08:34:17;;;;;;;68.65;26.40;;;7.80;76.00;;;;;;7376538;19;20021;-80
2022/12/05 08:36:45;;;;;;;64.13;26.52;;;7.80;75.60;;;;;;7380214;19;20058;-82
2022/12/05 08:39:17;;;;;;;64.53;28.33;;;7.90;75.80;;;;;;7401382;19;20093;-80
2022/12/05 08:41:49;;;;;;;67.45;27.55;;;7.90;76.00;;;;;;7378387;19;20109;-78
2022/12/05 08:44:18;;;;;;;81.07;28.80;;;7.90;76.30;;;;;;7379697;19;20015;-80
2022/12/05 08:46:50;;;;;;;264.55;35.00;;;8.00;76.30;;;;;;7372337;19;20105;-79
2022/12/05 08:49:19;;;;;;;395.42;37.40;;;8.00;76.30;;;;;;7370784;19;20017;-79
2022/12/05 08:51:48;;;;;;;63.28;24.95;;;8.00;76.10;;;;;;7375583;19;20090;-81
2022/12/05 08:54:17;;;;;;;70.35;27.67;;;8.00;76.00;;;;;;7396261;19;20314;-81
2022/12/05 08:56:52;;;;;;;69.00;25.38;;;8.10;75.90;;;;;;7381786;19;20063;-81
2022/12/05 08:59:21;;;;;;;61.95;25.90;;;8.00;75.10;;;;;;7376245;19;20035;-82
2022/12/05 09:01:51;;;;;;;65.00;26.10;;;8.00;75.10;;;;;;7374849;19;20098;-82
2022/12/05 09:04:20;;;;;;;64.30;25.73;;;8.00;74.70;;;;;;7373191;19;20014;-79
2022/12/05 09:06:50;;;;;;;70.47;25.92;;;7.90;74.70;;;;;;7370966;19;20121;-80
2022/12/05 09:09:19;;;;;;;56.47;24.45;;;8.00;75.20;;;;;;7391573;19;20014;-79
2022/12/05 09:11:50;;;;;;;62.17;25.67;;;8.00;74.90;;;;;;7374073;19;20028;-79
2022/12/05 09:14:19;;;;;;;;;;;7.90;75.20;;;;;;7376920;19;20031;-80
2022/12/05 09:16:49;;;;;;;62.65;24.48;;;8.00;76.10;;;;;;7370414;19;19998;-79
2022/12/05 09:19:19;;;;;;;64.65;26.20;;;8.00;76.10;;;;;;7372637;19;20010;-79
2022/12/05 09:21:48;;;;;;;63.22;26.13;;;8.10;75.80;;;;;;7374037;19;20449;-80
2022/12/05 09:24:17;;;;;;;66.28;26.88;;;8.10;75.90;;;;;;7396909;19;20454;-80
2022/12/05 09:26:46;;;;;;;61.95;25.25;;;8.10;75.70;;;;;;7374158;19;20121;-80
2022/12/05 09:29:17;;;;;;;63.15;25.60;;;8.10;75.60;;;;;;7375940;19;20082;-85
2022/12/05 09:31:46;;;;;;;73.78;25.98;;;8.10;75.90;;;;;;7378984;19;20026;-86
2022/12/05 09:34:16;;;;;;;65.22;26.55;;;8.20;76.20;;;;;;7375331;19;20035;-86
2022/12/05 09:36:48;;;;;;;59.00;26.83;;;8.20;76.30;;;;;;7371221;19;20032;-84
2022/12/05 09:39:17;;;;;;;68.43;27.45;;;8.20;75.90;;;;;;7396516;19;20057;-86
2022/12/05 09:42:09;;;;;;;60.78;25.38;;;8.30;75.80;;;;;;7377984;19;20090;-85
2022/12/05 09:45:05;;;;;;;62.33;26.00;;;8.30;75.10;;;;;;7376416;19;20010;-84
2022/12/05 09:47:44;;;;;;;66.28;26.00;;;8.20;74.80;;;;;;7374905;19;20090;-85
2022/12/05 09:50:18;;;;;;;65.05;27.85;;;8.10;74.70;;;;;;7375913;19;20118;-84
2022/12/05 09:53:05;;;;;;;61.35;26.08;;;8.10;75.50;;;;;;7374072;19;20040;-85
2022/12/05 09:55:45;;;;;;;70.57;28.35;;;8.10;76.10;;;;;;7372492;19;20442;-87
2022/12/05 09:58:23;;;;;;;63.15;26.13;;;8.20;76.20;;;;;;7375718;19;20022;-85
2022/12/05 10:01:05;;;;;;;62.90;25.95;;;8.20;75.70;;;;;;7380912;19;20018;-84
2022/12/05 10:03:44;;;;;;;63.72;25.35;;;8.20;74.80;;;;;;7403665;19;20014;-84
2022/12/05 10:06:20;;;;;;;57.22;25.17;;;8.10;74.60;;;;;;7381178;19;20077;-83
2022/12/05 10:09:04;;;;;;;88.22;26.90;;;8.10;74.70;;;;;;7379800;19;20025;-85
2022/12/05 10:11:38;;;;;;;180.40;29.90;;;8.00;75.10;;;;;;7380623;19;20086;-84
2022/12/05 10:14:15;;;;;;;83.63;25.33;;;8.00;74.90;;;;;;7382873;19;20444;-82
2022/12/05 10:16:51;;;;;;;64.85;25.25;;;8.00;75.50;;;;;;7378684;19;20017;-84
2022/12/05 10:19:27;;;;;;;67.80;25.88;;;8.00;75.00;;;;;;7377691;19;20010;-85
2022/12/05 10:22:00;;;;;;;59.50;24.77;;;8.00;75.20;;;;;;7378502;19;20033;-84
2022/12/05 10:24:33;;;;;;;54.80;23.45;;;8.00;74.70;;;;;;7400587;19;20030;-85
2022/12/05 10:27:06;;;;;;;56.78;24.17;;;7.90;74.30;;;;;;7386713;19;20478;-85
2022/12/05 10:29:39;;;;;;;58.80;24.67;;;7.90;74.20;;;;;;7380085;19;20022;-83
2022/12/05 10:32:16;;;;;;;60.28;25.23;;;7.90;74.40;;;;;;7378126;19;20018;-84
2022/12/05 10:34:47;;;;;;;62.03;25.10;;;7.90;74.70;;;;;;7379320;19;20032;-84
2022/12/05 10:37:19;;;;;;;68.55;25.92;;;8.00;75.00;;;;;;7377554;19;20337;-82
2022/12/05 10:39:49;;;;;;;63.70;25.15;;;8.00;74.70;;;;;;7375459;19;20117;-86
2022/12/05 10:42:21;;;;;;;63.53;26.08;;;8.00;74.80;;;;;;7404706;19;20007;-84
2022/12/05 10:44:52;;;;;;;57.53;25.55;;;8.10;74.90;;;;;;7378500;19;20014;-85
2022/12/05 10:47:23;;;;;;;;;;;8.20;74.70;;;;;;7376960;19;20014;-84
2022/12/05 10:49:53;;;;;;;62.95;24.00;;;8.30;74.90;;;;;;7374689;19;19921;-84
2022/12/05 10:52:22;;;;;;;67.30;26.20;;;8.30;74.60;;;;;;7377435;19;20018;-83
2022/12/05 10:54:57;;;;;;;63.65;27.23;;;8.30;74.60;;;;;;7380917;19;20448;-82
2022/12/05 10:57:28;;;;;;;63.65;26.83;;;8.30;74.20;;;;;;7408514;19;20024;-84
2022/12/05 10:59:58;;;;;;;63.42;25.55;;;8.30;73.80;;;;;;7381513;19;20478;-85
2022/12/05 11:02:31;;;;;;;67.80;27.33;;;8.40;74.10;;;;;;7380372;19;20007;-87
2022/12/05 11:05:00;;;;;;;64.97;27.27;;;8.30;74.10;;;;;;7377935;19;21514;-82
2022/12/05 11:07:33;;;;;;;66.03;26.20;;;8.40;74.50;;;;;;7378635;19;20444;-83
2022/12/05 11:10:03;;;;;;;62.10;26.35;;;8.40;74.70;;;;;;7377720;19;20110;-84
2022/12/05 11:12:39;;;;;;;70.47;27.02;;;8.50;75.20;;;;;;7400736;19;20041;-85
2022/12/05 11:15:24;;;;;;;67.65;28.02;;;8.50;75.20;;;;;;7377763;19;20082;-84
2022/12/05 11:17:57;;;;;;;69.85;27.55;;;8.40;74.30;;;;;;7378562;19;20022;-82
2022/12/05 11:20:40;;;;;;;66.70;26.73;;;8.40;74.00;;;;;;7378708;19;20011;-83
2022/12/05 11:23:25;;;;;;;68.15;26.20;;;8.40;73.90;;;;;;7385873;19;20473;-84
2022/12/05 11:25:54;;;;;;;57.92;26.30;;;8.40;73.50;;;;;;7387800;19;20039;-84
2022/12/05 11:28:41;;;;;;;65.40;26.55;;;8.30;73.70;;;;;;7383637;19;20039;-83
2022/12/05 11:31:23;;;;;;;66.88;28.10;;;8.30;74.40;;;;;;7381813;19;20019;-84
2022/12/05 11:34:11;;;;;;;66.53;28.55;;;8.30;74.70;;;;;;7379917;19;20010;-86
2022/12/05 11:36:45;;;;;;;65.00;28.35;;;8.30;74.90;;;;;;7374454;19;20094;-84
2022/12/05 11:39:15;;;;;;;73.25;28.10;;;8.30;74.70;;;;;;7399096;19;20039;-85
2022/12/05 11:41:59;;;;;;;78.07;28.92;;;8.30;74.30;;;;;;7374106;19;20014;-82
2022/12/05 11:44:58;;;;;;;371.75;39.03;;;8.20;74.10;;;;;;7378291;19;20025;-82
2022/12/05 11:47:41;;;;;;;77.60;29.35;;;8.20;74.70;;;;;;7378699;19;20035;-80
2022/12/05 11:50:35;;;;;;;86.95;31.40;;;8.20;75.40;;;;;;7377065;19;20010;-79
2022/12/05 11:53:23;;;;;;;79.95;30.08;;;8.30;75.90;;;;;;7375039;19;20570;-80
2022/12/05 11:55:56;;;;;;;77.50;30.90;;;8.30;76.30;;;;;;7374196;19;20078;-81
2022/12/05 11:58:39;;;;;;;86.78;31.73;;;8.30;76.30;;;;;;7376873;19;20014;-81
2022/12/05 12:01:20;;;;;;;76.15;31.55;;;8.30;76.30;;;;;;7386352;19;20023;-78
2022/12/05 12:04:30;;;;;;;82.38;30.85;;;8.30;76.30;;;;;;7402989;19;20022;-78
2022/12/05 12:07:24;;;;;;;73.13;29.75;;;8.40;76.50;;;;;;7387878;19;20018;-78
2022/12/05 12:10:00;;;;;;;73.43;29.88;;;8.40;75.70;;;;;;7378094;19;20002;-78
2022/12/05 12:12:37;;;;;;;70.32;28.98;;;8.30;75.00;;;;;;7399710;19;20093;-79
2022/12/05 12:15:21;;;;;;;78.00;30.10;;;8.40;75.30;;;;;;7377471;19;20021;-77
2022/12/05 12:17:58;;;;;;;75.05;29.52;;;8.30;75.30;;;;;;7378209;19;20021;-78
2022/12/05 12:20:44;;;;;;;78.32;30.65;;;8.30;75.30;;;;;;7376886;19;20022;-78
2022/12/05 12:23:30;;;;;;;80.25;30.25;;;8.30;75.80;;;;;;7376492;19;20513;-78
2022/12/05 12:26:09;;;;;;;72.13;30.05;;;8.40;75.90;;;;;;7375298;19;20022;-78
2022/12/05 12:28:45;;;;;;;67.55;28.58;;;8.50;75.20;;;;;;7373739;19;20018;-78
2022/12/05 12:31:36;;;;;;;71.65;28.42;;;8.40;74.10;;;;;;7373024;19;20162;-79
2022/12/05 12:34:30;;;;;;;72.97;30.05;;;8.40;75.30;;;;;;7376381;19;20014;-78
2022/12/05 12:37:07;;;;;;;80.53;29.02;;;8.40;74.70;;;;;;7375462;19;20022;-79
2022/12/05 12:39:52;;;;;;;73.50;30.58;;;8.40;75.20;;;;;;7404585;19;20018;-78
2022/12/05 12:42:26;;;;;;;73.38;28.88;;;8.40;75.30;;;;;;7377441;19;20032;-79
2022/12/05 12:45:11;;;;;;;70.47;28.83;;;8.40;74.40;;;;;;7375136;19;20015;-79
2022/12/05 12:48:01;;;;;;;73.15;29.90;;;8.40;74.50;;;;;;7372954;19;20097;-78
2022/12/05 12:50:33;;;;;;;71.53;27.30;;;8.40;74.40;;;;;;7370848;19;20052;-78
2022/12/05 12:53:47;;;;;;;80.53;31.10;;;8.50;74.20;;;;;;7372502;19;20655;-77
2022/12/05 12:56:29;;;;;;;74.63;28.92;;;8.40;74.50;;;;;;7368402;19;20014;-78
2022/12/05 12:59:04;;;;;;;79.53;31.13;;;8.40;74.10;;;;;;7370865;19;20142;-78
2022/12/05 13:01:39;;;;;;;77.18;31.05;;;8.40;74.40;;;;;;7369311;19;20026;-77
2022/12/05 13:04:14;;;;;;;82.65;31.27;;;8.40;73.80;;;;;;7369054;19;20015;-78
2022/12/05 13:06:46;;;;;;;72.25;29.50;;;8.30;74.10;;;;;;7369168;19;20023;-79
2022/12/05 13:09:22;;;;;;;72.40;31.05;;;8.40;74.30;;;;;;7390787;19;20015;-78
2022/12/05 13:11:55;;;;;;;70.65;29.58;;;8.40;73.80;;;;;;7367902;19;20018;-79
2022/12/05 13:14:26;;;;;;;81.70;29.25;;;8.50;73.70;;;;;;7370207;19;20893;-79
2022/12/05 13:16:57;;;;;;;84.57;32.13;;;8.40;73.60;;;;;;7381966;19;20128;-78
2022/12/05 13:19:36;;;;;;;73.47;31.33;;;8.40;73.60;;;;;;7379288;19;20066;-78